Homer Airport
PAHO : rendu visible

Aérodrome :











RETROUVEZ-NOUS SUR...

 
LOGIN :

S'inscrire | Disclaimer

   EN    FR    IT 

 









Légende :    VFR   VFR Marginal   IFR   IFR Intensif   IFR Très Intensif
Visi : 
Plafond : 
>= 8 km
>= 3000ft
5 à 8 km
1000 à 3000 ft
1500m à 5 km
500 à 1000 ft
800 à 1500m
200 à 500 ft
< 800m
< 200 ft
Symboles :   Orages  Brouillard  Fortes neiges  Fortes précipitations  Vent > 20 kt






- Altitude de l'aérodrome : 84 ft
- Code IATA : HOM


PAHO - Homer

DERNIER METAR :
  • 301953Z COR 05008KT 9SM -SN BKN050 BKN065 OVC110 01/M03 A2911 RMK AO2 SLP859 VIS NE 5SM T00061033

METARs EXPIRÉS :
  • 301853Z 04009KT 10SM OVC100 M01/M03 A2915 RMK AO2 SLP871 T10061033
  • 301753Z 05003KT 10SM BKN050 OVC060 M02/M04 A2918 RMK AO2 SLP883 T10171039 11006 21033 56018

TAF PAHO
Valide du 30 à 18h jusqu'au 01 à 18h UTC


301729Z 3018/0118 07007KT P6SM BKN045
FM302200 07015G22KT 3SM -SN OVC020 WS015/10045KT
FM010500 15012KT P6SM -RA SCT020 OVC030
FM011200 15014G22KT 5SM -RA BKN020
FIR PAZA / Amérique du Nord



MET'MAP, la Météo Aéronautique d'un coup d'oeil ! - Copyright ORBIFLY Décembre 2007 - Disclaimer

ORBIFLY MET'MAP TEAM :

Programmation & Développement : Alexandra Zaïnal
Sur une idée originale de : Baudouin d'Aumeries
Assistance à la programmation : Marc-Olivier Méhu
Soutien technique & logistique : Manuel Goepfert

Contact : metmap@orbifly.com




SOURCES & CREDITS :

   NOAA       Earth
Advisory